sensor_id;sensor_type;location;lat;lon;timestamp;P1;durP1;ratioP1;P2;durP2;ratioP2
27925;SDS011;15267;47.838;12.128;2023-06-22T00:00:40;14.65;;;7.10;;
27925;SDS011;15267;47.838;12.128;2023-06-22T00:03:07;15.50;;;7.35;;
27925;SDS011;15267;47.838;12.128;2023-06-22T00:05:33;13.98;;;7.28;;
27925;SDS011;15267;47.838;12.128;2023-06-22T00:08:02;20.83;;;7.80;;
27925;SDS011;15267;47.838;12.128;2023-06-22T00:10:28;18.13;;;7.82;;
27925;SDS011;15267;47.838;12.128;2023-06-22T00:12:54;18.85;;;7.60;;
27925;SDS011;15267;47.838;12.128;2023-06-22T00:15:20;19.95;;;7.95;;
27925;SDS011;15267;47.838;12.128;2023-06-22T00:17:45;14.38;;;7.68;;
27925;SDS011;15267;47.838;12.128;2023-06-22T00:20:11;15.32;;;7.25;;
27925;SDS011;15267;47.838;12.128;2023-06-22T00:22:39;13.82;;;7.18;;
27925;SDS011;15267;47.838;12.128;2023-06-22T00:25:08;16.40;;;7.85;;
27925;SDS011;15267;47.838;12.128;2023-06-22T00:27:34;18.27;;;8.13;;
27925;SDS011;15267;47.838;12.128;2023-06-22T00:30:00;14.93;;;7.18;;
27925;SDS011;15267;47.838;12.128;2023-06-22T00:32:26;16.10;;;7.57;;
27925;SDS011;15267;47.838;12.128;2023-06-22T00:34:52;18.50;;;8.20;;
27925;SDS011;15267;47.838;12.128;2023-06-22T00:37:18;13.65;;;7.43;;
27925;SDS011;15267;47.838;12.128;2023-06-22T00:39:44;16.23;;;7.45;;
27925;SDS011;15267;47.838;12.128;2023-06-22T00:42:10;15.95;;;7.35;;
27925;SDS011;15267;47.838;12.128;2023-06-22T00:44:36;15.77;;;7.75;;
27925;SDS011;15267;47.838;12.128;2023-06-22T00:47:02;14.48;;;7.40;;
27925;SDS011;15267;47.838;12.128;2023-06-22T00:49:28;13.30;;;7.00;;
27925;SDS011;15267;47.838;12.128;2023-06-22T00:51:54;14.65;;;7.18;;
27925;SDS011;15267;47.838;12.128;2023-06-22T00:54:21;17.58;;;7.60;;
27925;SDS011;15267;47.838;12.128;2023-06-22T00:56:51;14.20;;;7.20;;
27925;SDS011;15267;47.838;12.128;2023-06-22T00:59:19;16.90;;;8.07;;
27925;SDS011;15267;47.838;12.128;2023-06-22T01:01:45;14.15;;;7.55;;
27925;SDS011;15267;47.838;12.128;2023-06-22T01:04:11;17.17;;;7.82;;
27925;SDS011;15267;47.838;12.128;2023-06-22T01:06:38;15.43;;;7.72;;
27925;SDS011;15267;47.838;12.128;2023-06-22T01:09:16;13.02;;;6.90;;
27925;SDS011;15267;47.838;12.128;2023-06-22T01:11:48;13.90;;;7.32;;
27925;SDS011;15267;47.838;12.128;2023-06-22T01:14:18;18.90;;;7.37;;
27925;SDS011;15267;47.838;12.128;2023-06-22T01:16:46;14.63;;;7.40;;
27925;SDS011;15267;47.838;12.128;2023-06-22T01:21:42;14.25;;;7.03;;
27925;SDS011;15267;47.838;12.128;2023-06-22T01:26:42;17.05;;;7.93;;
27925;SDS011;15267;47.838;12.128;2023-06-22T01:29:11;16.20;;;7.05;;
27925;SDS011;15267;47.838;12.128;2023-06-22T01:31:38;15.95;;;7.25;;
27925;SDS011;15267;47.838;12.128;2023-06-22T01:34:05;16.58;;;7.22;;
27925;SDS011;15267;47.838;12.128;2023-06-22T01:36:32;17.33;;;7.20;;
27925;SDS011;15267;47.838;12.128;2023-06-22T01:38:59;16.60;;;7.65;;
27925;SDS011;15267;47.838;12.128;2023-06-22T01:41:26;16.25;;;7.63;;
27925;SDS011;15267;47.838;12.128;2023-06-22T01:43:52;14.85;;;7.00;;
27925;SDS011;15267;47.838;12.128;2023-06-22T01:46:19;13.15;;;6.82;;
27925;SDS011;15267;47.838;12.128;2023-06-22T01:48:46;14.98;;;7.10;;
27925;SDS011;15267;47.838;12.128;2023-06-22T01:51:12;16.33;;;7.22;;
27925;SDS011;15267;47.838;12.128;2023-06-22T01:53:39;15.75;;;8.25;;
27925;SDS011;15267;47.838;12.128;2023-06-22T01:56:04;15.10;;;7.57;;
27925;SDS011;15267;47.838;12.128;2023-06-22T01:58:31;17.65;;;7.65;;
27925;SDS011;15267;47.838;12.128;2023-06-22T02:01:05;16.15;;;8.20;;
27925;SDS011;15267;47.838;12.128;2023-06-22T02:03:35;20.85;;;7.75;;
27925;SDS011;15267;47.838;12.128;2023-06-22T02:06:04;21.55;;;9.05;;
27925;SDS011;15267;47.838;12.128;2023-06-22T02:08:33;21.40;;;9.02;;
27925;SDS011;15267;47.838;12.128;2023-06-22T02:11:00;14.18;;;8.20;;
27925;SDS011;15267;47.838;12.128;2023-06-22T02:13:28;17.33;;;7.55;;
27925;SDS011;15267;47.838;12.128;2023-06-22T02:15:54;18.10;;;7.32;;
27925;SDS011;15267;47.838;12.128;2023-06-22T02:18:20;12.55;;;6.82;;
27925;SDS011;15267;47.838;12.128;2023-06-22T02:20:46;12.73;;;6.70;;
27925;SDS011;15267;47.838;12.128;2023-06-22T02:23:12;12.20;;;6.85;;
27925;SDS011;15267;47.838;12.128;2023-06-22T02:25:38;15.30;;;6.97;;
27925;SDS011;15267;47.838;12.128;2023-06-22T02:28:04;16.38;;;6.72;;
27925;SDS011;15267;47.838;12.128;2023-06-22T02:30:31;14.20;;;6.90;;
27925;SDS011;15267;47.838;12.128;2023-06-22T02:32:57;17.70;;;6.93;;
27925;SDS011;15267;47.838;12.128;2023-06-22T02:35:24;15.63;;;7.15;;
27925;SDS011;15267;47.838;12.128;2023-06-22T02:37:50;15.70;;;7.20;;
27925;SDS011;15267;47.838;12.128;2023-06-22T02:40:17;15.23;;;6.93;;
27925;SDS011;15267;47.838;12.128;2023-06-22T02:42:43;14.82;;;7.03;;
27925;SDS011;15267;47.838;12.128;2023-06-22T02:45:09;17.27;;;6.82;;
27925;SDS011;15267;47.838;12.128;2023-06-22T02:47:35;14.80;;;7.13;;
27925;SDS011;15267;47.838;12.128;2023-06-22T02:50:01;13.30;;;6.70;;
27925;SDS011;15267;47.838;12.128;2023-06-22T02:52:27;16.65;;;6.85;;
27925;SDS011;15267;47.838;12.128;2023-06-22T02:54:53;12.48;;;6.80;;
27925;SDS011;15267;47.838;12.128;2023-06-22T02:57:18;10.80;;;6.72;;
27925;SDS011;15267;47.838;12.128;2023-06-22T02:59:44;12.35;;;6.57;;
27925;SDS011;15267;47.838;12.128;2023-06-22T03:02:10;13.40;;;6.57;;
27925;SDS011;15267;47.838;12.128;2023-06-22T03:04:36;14.05;;;6.15;;
27925;SDS011;15267;47.838;12.128;2023-06-22T03:07:02;16.77;;;6.35;;
27925;SDS011;15267;47.838;12.128;2023-06-22T03:09:29;10.35;;;6.35;;
27925;SDS011;15267;47.838;12.128;2023-06-22T03:11:55;15.13;;;5.55;;
27925;SDS011;15267;47.838;12.128;2023-06-22T03:14:20;12.55;;;6.40;;
27925;SDS011;15267;47.838;12.128;2023-06-22T03:16:46;19.33;;;6.85;;
27925;SDS011;15267;47.838;12.128;2023-06-22T03:19:12;12.55;;;6.63;;
27925;SDS011;15267;47.838;12.128;2023-06-22T03:21:39;10.05;;;5.40;;
27925;SDS011;15267;47.838;12.128;2023-06-22T03:24:05;12.57;;;6.10;;
27925;SDS011;15267;47.838;12.128;2023-06-22T03:26:32;17.83;;;6.72;;
27925;SDS011;15267;47.838;12.128;2023-06-22T03:28:58;11.20;;;5.97;;
27925;SDS011;15267;47.838;12.128;2023-06-22T03:31:24;13.60;;;6.25;;
27925;SDS011;15267;47.838;12.128;2023-06-22T03:33:50;11.52;;;5.53;;
27925;SDS011;15267;47.838;12.128;2023-06-22T03:36:16;14.32;;;6.32;;
27925;SDS011;15267;47.838;12.128;2023-06-22T03:38:46;13.20;;;6.45;;
27925;SDS011;15267;47.838;12.128;2023-06-22T03:41:12;11.43;;;6.07;;
27925;SDS011;15267;47.838;12.128;2023-06-22T03:43:38;10.73;;;6.25;;
27925;SDS011;15267;47.838;12.128;2023-06-22T03:46:04;11.50;;;5.40;;
27925;SDS011;15267;47.838;12.128;2023-06-22T03:48:30;13.18;;;5.65;;
27925;SDS011;15267;47.838;12.128;2023-06-22T03:50:56;10.20;;;5.50;;
27925;SDS011;15267;47.838;12.128;2023-06-22T03:53:22;10.65;;;5.40;;
27925;SDS011;15267;47.838;12.128;2023-06-22T03:55:49;10.57;;;5.68;;
27925;SDS011;15267;47.838;12.128;2023-06-22T03:58:15;8.82;;;5.25;;
27925;SDS011;15267;47.838;12.128;2023-06-22T04:00:41;11.93;;;5.47;;
27925;SDS011;15267;47.838;12.128;2023-06-22T04:03:07;12.88;;;6.03;;
27925;SDS011;15267;47.838;12.128;2023-06-22T04:05:33;12.95;;;5.72;;
27925;SDS011;15267;47.838;12.128;2023-06-22T04:07:59;9.50;;;6.40;;
27925;SDS011;15267;47.838;12.128;2023-06-22T04:10:25;13.25;;;6.25;;
27925;SDS011;15267;47.838;12.128;2023-06-22T04:12:51;12.27;;;6.15;;
27925;SDS011;15267;47.838;12.128;2023-06-22T04:15:17;14.45;;;7.30;;
27925;SDS011;15267;47.838;12.128;2023-06-22T04:17:43;11.60;;;6.57;;
27925;SDS011;15267;47.838;12.128;2023-06-22T04:20:09;11.50;;;5.75;;
27925;SDS011;15267;47.838;12.128;2023-06-22T04:22:35;10.77;;;6.07;;
27925;SDS011;15267;47.838;12.128;2023-06-22T04:25:01;14.25;;;6.10;;
27925;SDS011;15267;47.838;12.128;2023-06-22T04:27:27;13.95;;;6.05;;
27925;SDS011;15267;47.838;12.128;2023-06-22T04:29:53;14.32;;;6.20;;
27925;SDS011;15267;47.838;12.128;2023-06-22T04:32:18;10.27;;;6.03;;
27925;SDS011;15267;47.838;12.128;2023-06-22T04:34:44;11.45;;;6.85;;
27925;SDS011;15267;47.838;12.128;2023-06-22T04:37:10;13.63;;;7.25;;
27925;SDS011;15267;47.838;12.128;2023-06-22T04:39:40;11.30;;;5.97;;
27925;SDS011;15267;47.838;12.128;2023-06-22T04:42:06;11.55;;;5.50;;
27925;SDS011;15267;47.838;12.128;2023-06-22T04:44:32;12.40;;;6.88;;
27925;SDS011;15267;47.838;12.128;2023-06-22T04:46:59;12.93;;;5.85;;
27925;SDS011;15267;47.838;12.128;2023-06-22T04:49:27;11.77;;;5.88;;
27925;SDS011;15267;47.838;12.128;2023-06-22T04:51:57;15.85;;;6.75;;
27925;SDS011;15267;47.838;12.128;2023-06-22T04:54:23;12.13;;;5.95;;
27925;SDS011;15267;47.838;12.128;2023-06-22T04:56:49;14.82;;;6.35;;
27925;SDS011;15267;47.838;12.128;2023-06-22T04:59:21;15.95;;;6.90;;
27925;SDS011;15267;47.838;12.128;2023-06-22T05:01:47;18.55;;;6.70;;
27925;SDS011;15267;47.838;12.128;2023-06-22T05:04:13;14.25;;;6.93;;
27925;SDS011;15267;47.838;12.128;2023-06-22T05:06:39;15.65;;;7.25;;
27925;SDS011;15267;47.838;12.128;2023-06-22T05:09:05;14.45;;;6.75;;
27925;SDS011;15267;47.838;12.128;2023-06-22T05:11:31;13.60;;;6.38;;
27925;SDS011;15267;47.838;12.128;2023-06-22T05:13:57;13.13;;;6.80;;
27925;SDS011;15267;47.838;12.128;2023-06-22T05:16:23;14.73;;;7.40;;
27925;SDS011;15267;47.838;12.128;2023-06-22T05:18:51;16.25;;;7.18;;
27925;SDS011;15267;47.838;12.128;2023-06-22T05:21:17;16.08;;;7.60;;
27925;SDS011;15267;47.838;12.128;2023-06-22T05:23:44;16.50;;;7.38;;
27925;SDS011;15267;47.838;12.128;2023-06-22T05:26:10;16.40;;;7.35;;
27925;SDS011;15267;47.838;12.128;2023-06-22T05:28:36;13.82;;;7.43;;
27925;SDS011;15267;47.838;12.128;2023-06-22T05:31:01;16.85;;;7.30;;
27925;SDS011;15267;47.838;12.128;2023-06-22T05:33:28;15.30;;;7.45;;
27925;SDS011;15267;47.838;12.128;2023-06-22T05:35:54;16.88;;;7.55;;
27925;SDS011;15267;47.838;12.128;2023-06-22T05:38:20;17.45;;;7.25;;
27925;SDS011;15267;47.838;12.128;2023-06-22T05:40:46;18.48;;;7.28;;
27925;SDS011;15267;47.838;12.128;2023-06-22T05:43:12;13.57;;;6.70;;
27925;SDS011;15267;47.838;12.128;2023-06-22T05:45:38;16.77;;;7.50;;
27925;SDS011;15267;47.838;12.128;2023-06-22T05:48:04;17.48;;;7.88;;
27925;SDS011;15267;47.838;12.128;2023-06-22T05:50:31;16.98;;;8.13;;
27925;SDS011;15267;47.838;12.128;2023-06-22T05:52:56;15.98;;;8.73;;
27925;SDS011;15267;47.838;12.128;2023-06-22T05:55:22;15.45;;;7.10;;
27925;SDS011;15267;47.838;12.128;2023-06-22T05:57:48;16.25;;;7.30;;
27925;SDS011;15267;47.838;12.128;2023-06-22T06:00:14;12.38;;;7.25;;
27925;SDS011;15267;47.838;12.128;2023-06-22T06:02:40;18.92;;;7.28;;
27925;SDS011;15267;47.838;12.128;2023-06-22T06:05:09;17.33;;;7.00;;
27925;SDS011;15267;47.838;12.128;2023-06-22T06:07:35;17.02;;;7.45;;
27925;SDS011;15267;47.838;12.128;2023-06-22T06:10:02;20.80;;;7.88;;
27925;SDS011;15267;47.838;12.128;2023-06-22T06:12:29;18.63;;;8.48;;
27925;SDS011;15267;47.838;12.128;2023-06-22T06:14:55;17.05;;;8.32;;
27925;SDS011;15267;47.838;12.128;2023-06-22T06:17:21;15.32;;;8.18;;
27925;SDS011;15267;47.838;12.128;2023-06-22T06:19:47;16.33;;;7.40;;
27925;SDS011;15267;47.838;12.128;2023-06-22T06:22:13;19.13;;;8.50;;
27925;SDS011;15267;47.838;12.128;2023-06-22T06:24:39;14.05;;;7.93;;
27925;SDS011;15267;47.838;12.128;2023-06-22T06:27:05;16.13;;;7.78;;
27925;SDS011;15267;47.838;12.128;2023-06-22T06:29:31;14.07;;;7.97;;
27925;SDS011;15267;47.838;12.128;2023-06-22T06:31:57;17.63;;;8.15;;
27925;SDS011;15267;47.838;12.128;2023-06-22T06:34:23;14.63;;;8.18;;
27925;SDS011;15267;47.838;12.128;2023-06-22T06:36:49;14.98;;;7.82;;
27925;SDS011;15267;47.838;12.128;2023-06-22T06:39:15;17.05;;;8.23;;
27925;SDS011;15267;47.838;12.128;2023-06-22T06:41:41;18.30;;;8.40;;
27925;SDS011;15267;47.838;12.128;2023-06-22T06:44:07;19.45;;;8.18;;
27925;SDS011;15267;47.838;12.128;2023-06-22T06:46:33;17.20;;;8.15;;
27925;SDS011;15267;47.838;12.128;2023-06-22T06:48:59;20.83;;;8.15;;
27925;SDS011;15267;47.838;12.128;2023-06-22T06:51:25;20.70;;;8.13;;
27925;SDS011;15267;47.838;12.128;2023-06-22T06:53:51;15.20;;;8.15;;
27925;SDS011;15267;47.838;12.128;2023-06-22T06:56:17;19.02;;;8.25;;
27925;SDS011;15267;47.838;12.128;2023-06-22T06:58:43;18.17;;;8.13;;
27925;SDS011;15267;47.838;12.128;2023-06-22T07:01:10;24.10;;;8.43;;
27925;SDS011;15267;47.838;12.128;2023-06-22T07:03:36;22.02;;;8.20;;
27925;SDS011;15267;47.838;12.128;2023-06-22T07:06:02;17.02;;;7.70;;
27925;SDS011;15267;47.838;12.128;2023-06-22T07:08:28;21.27;;;7.95;;
27925;SDS011;15267;47.838;12.128;2023-06-22T07:10:54;19.38;;;7.88;;
27925;SDS011;15267;47.838;12.128;2023-06-22T07:13:20;21.13;;;8.05;;
27925;SDS011;15267;47.838;12.128;2023-06-22T07:15:47;17.02;;;7.60;;
27925;SDS011;15267;47.838;12.128;2023-06-22T07:18:13;21.58;;;7.53;;
27925;SDS011;15267;47.838;12.128;2023-06-22T07:20:39;20.77;;;8.32;;
27925;SDS011;15267;47.838;12.128;2023-06-22T07:23:06;16.88;;;7.93;;
27925;SDS011;15267;47.838;12.128;2023-06-22T07:25:32;22.08;;;7.65;;
27925;SDS011;15267;47.838;12.128;2023-06-22T07:30:24;17.42;;;7.50;;
27925;SDS011;15267;47.838;12.128;2023-06-22T07:32:49;19.65;;;7.75;;
27925;SDS011;15267;47.838;12.128;2023-06-22T07:35:15;21.35;;;7.68;;
27925;SDS011;15267;47.838;12.128;2023-06-22T07:37:42;13.88;;;7.15;;
27925;SDS011;15267;47.838;12.128;2023-06-22T07:40:08;17.70;;;7.20;;
27925;SDS011;15267;47.838;12.128;2023-06-22T07:42:34;18.60;;;7.82;;
27925;SDS011;15267;47.838;12.128;2023-06-22T07:45:01;19.33;;;7.25;;
27925;SDS011;15267;47.838;12.128;2023-06-22T07:47:27;17.98;;;7.57;;
27925;SDS011;15267;47.838;12.128;2023-06-22T07:49:54;19.08;;;7.68;;
27925;SDS011;15267;47.838;12.128;2023-06-22T07:52:22;16.77;;;8.15;;
27925;SDS011;15267;47.838;12.128;2023-06-22T07:54:48;13.20;;;7.15;;
27925;SDS011;15267;47.838;12.128;2023-06-22T07:57:14;22.05;;;7.97;;
27925;SDS011;15267;47.838;12.128;2023-06-22T07:59:40;23.25;;;7.70;;
27925;SDS011;15267;47.838;12.128;2023-06-22T08:02:06;13.35;;;7.40;;
27925;SDS011;15267;47.838;12.128;2023-06-22T08:04:33;15.82;;;7.05;;
27925;SDS011;15267;47.838;12.128;2023-06-22T08:06:59;18.13;;;8.07;;
27925;SDS011;15267;47.838;12.128;2023-06-22T08:09:27;16.75;;;7.57;;
27925;SDS011;15267;47.838;12.128;2023-06-22T08:11:53;14.70;;;7.78;;
27925;SDS011;15267;47.838;12.128;2023-06-22T08:14:21;22.98;;;8.40;;
27925;SDS011;15267;47.838;12.128;2023-06-22T08:16:47;15.98;;;7.68;;
27925;SDS011;15267;47.838;12.128;2023-06-22T08:19:13;20.02;;;7.38;;
27925;SDS011;15267;47.838;12.128;2023-06-22T08:21:39;22.55;;;7.95;;
27925;SDS011;15267;47.838;12.128;2023-06-22T08:24:05;16.65;;;7.32;;
27925;SDS011;15267;47.838;12.128;2023-06-22T08:26:32;17.85;;;7.22;;
27925;SDS011;15267;47.838;12.128;2023-06-22T08:29:01;18.52;;;7.95;;
27925;SDS011;15267;47.838;12.128;2023-06-22T08:31:27;16.63;;;7.53;;
27925;SDS011;15267;47.838;12.128;2023-06-22T08:33:53;17.52;;;7.50;;
27925;SDS011;15267;47.838;12.128;2023-06-22T08:36:19;19.92;;;7.30;;
27925;SDS011;15267;47.838;12.128;2023-06-22T08:38:46;19.80;;;7.80;;
27925;SDS011;15267;47.838;12.128;2023-06-22T08:41:16;18.33;;;6.72;;
27925;SDS011;15267;47.838;12.128;2023-06-22T08:43:43;12.23;;;6.45;;
27925;SDS011;15267;47.838;12.128;2023-06-22T08:46:12;17.65;;;7.03;;
27925;SDS011;15267;47.838;12.128;2023-06-22T08:48:38;19.83;;;7.60;;
27925;SDS011;15267;47.838;12.128;2023-06-22T08:51:04;16.52;;;7.05;;
27925;SDS011;15267;47.838;12.128;2023-06-22T08:53:30;21.38;;;8.02;;
27925;SDS011;15267;47.838;12.128;2023-06-22T08:55:55;18.95;;;7.40;;
27925;SDS011;15267;47.838;12.128;2023-06-22T08:58:21;18.45;;;6.90;;
27925;SDS011;15267;47.838;12.128;2023-06-22T09:00:49;23.73;;;7.65;;
27925;SDS011;15267;47.838;12.128;2023-06-22T09:03:16;18.25;;;7.05;;
27925;SDS011;15267;47.838;12.128;2023-06-22T09:05:42;22.05;;;6.97;;
27925;SDS011;15267;47.838;12.128;2023-06-22T09:08:08;17.30;;;6.93;;
27925;SDS011;15267;47.838;12.128;2023-06-22T09:10:34;16.02;;;7.03;;
27925;SDS011;15267;47.838;12.128;2023-06-22T09:13:00;18.63;;;7.07;;
27925;SDS011;15267;47.838;12.128;2023-06-22T09:15:26;22.67;;;7.00;;
27925;SDS011;15267;47.838;12.128;2023-06-22T09:17:52;20.85;;;6.55;;
27925;SDS011;15267;47.838;12.128;2023-06-22T09:20:19;15.95;;;7.22;;
27925;SDS011;15267;47.838;12.128;2023-06-22T09:22:45;16.70;;;6.57;;
27925;SDS011;15267;47.838;12.128;2023-06-22T09:25:11;17.10;;;6.88;;
27925;SDS011;15267;47.838;12.128;2023-06-22T09:27:37;17.45;;;6.50;;
27925;SDS011;15267;47.838;12.128;2023-06-22T09:30:03;14.60;;;6.05;;
27925;SDS011;15267;47.838;12.128;2023-06-22T09:32:29;19.40;;;6.90;;
27925;SDS011;15267;47.838;12.128;2023-06-22T09:34:55;21.38;;;7.03;;
27925;SDS011;15267;47.838;12.128;2023-06-22T09:37:21;21.27;;;6.93;;
27925;SDS011;15267;47.838;12.128;2023-06-22T09:39:47;19.63;;;6.00;;
27925;SDS011;15267;47.838;12.128;2023-06-22T09:42:13;18.02;;;6.13;;
27925;SDS011;15267;47.838;12.128;2023-06-22T09:44:39;26.92;;;6.80;;
27925;SDS011;15267;47.838;12.128;2023-06-22T09:47:06;14.07;;;6.38;;
27925;SDS011;15267;47.838;12.128;2023-06-22T09:49:32;20.30;;;6.28;;
27925;SDS011;15267;47.838;12.128;2023-06-22T09:51:58;18.52;;;6.20;;
27925;SDS011;15267;47.838;12.128;2023-06-22T09:54:24;17.90;;;6.15;;
27925;SDS011;15267;47.838;12.128;2023-06-22T09:56:49;18.70;;;6.20;;
27925;SDS011;15267;47.838;12.128;2023-06-22T09:59:15;21.23;;;6.43;;
27925;SDS011;15267;47.838;12.128;2023-06-22T10:01:42;15.25;;;6.07;;
27925;SDS011;15267;47.838;12.128;2023-06-22T10:04:08;22.38;;;6.50;;
27925;SDS011;15267;47.838;12.128;2023-06-22T10:06:33;17.58;;;6.03;;
27925;SDS011;15267;47.838;12.128;2023-06-22T10:08:59;18.15;;;6.50;;
27925;SDS011;15267;47.838;12.128;2023-06-22T10:11:25;17.95;;;6.03;;
27925;SDS011;15267;47.838;12.128;2023-06-22T10:13:55;22.25;;;6.50;;
27925;SDS011;15267;47.838;12.128;2023-06-22T10:16:21;20.20;;;6.35;;
27925;SDS011;15267;47.838;12.128;2023-06-22T10:18:47;24.58;;;6.97;;
27925;SDS011;15267;47.838;12.128;2023-06-22T10:21:13;19.17;;;6.55;;
27925;SDS011;15267;47.838;12.128;2023-06-22T10:23:39;22.55;;;6.97;;
27925;SDS011;15267;47.838;12.128;2023-06-22T10:26:05;17.75;;;5.90;;
27925;SDS011;15267;47.838;12.128;2023-06-22T10:28:31;21.00;;;6.15;;
27925;SDS011;15267;47.838;12.128;2023-06-22T10:30:56;21.45;;;6.65;;
27925;SDS011;15267;47.838;12.128;2023-06-22T10:33:22;17.92;;;6.43;;
27925;SDS011;15267;47.838;12.128;2023-06-22T10:35:48;17.77;;;6.22;;
27925;SDS011;15267;47.838;12.128;2023-06-22T10:38:14;21.40;;;6.40;;
27925;SDS011;15267;47.838;12.128;2023-06-22T10:40:41;16.30;;;6.43;;
27925;SDS011;15267;47.838;12.128;2023-06-22T10:43:07;17.80;;;6.28;;
27925;SDS011;15267;47.838;12.128;2023-06-22T10:45:33;21.90;;;6.47;;
27925;SDS011;15267;47.838;12.128;2023-06-22T10:47:59;18.35;;;6.50;;
27925;SDS011;15267;47.838;12.128;2023-06-22T10:50:25;17.30;;;6.20;;
27925;SDS011;15267;47.838;12.128;2023-06-22T10:52:51;21.05;;;5.97;;
27925;SDS011;15267;47.838;12.128;2023-06-22T10:55:17;16.83;;;6.03;;
27925;SDS011;15267;47.838;12.128;2023-06-22T10:57:43;16.02;;;6.25;;
27925;SDS011;15267;47.838;12.128;2023-06-22T11:00:12;24.70;;;6.40;;
27925;SDS011;15267;47.838;12.128;2023-06-22T11:02:38;17.00;;;6.28;;
27925;SDS011;15267;47.838;12.128;2023-06-22T11:05:04;18.65;;;6.57;;
27925;SDS011;15267;47.838;12.128;2023-06-22T11:07:30;17.67;;;6.25;;
27925;SDS011;15267;47.838;12.128;2023-06-22T11:09:56;22.65;;;6.22;;
27925;SDS011;15267;47.838;12.128;2023-06-22T11:12:22;16.58;;;5.75;;
27925;SDS011;15267;47.838;12.128;2023-06-22T11:14:48;16.75;;;6.03;;
27925;SDS011;15267;47.838;12.128;2023-06-22T11:17:16;15.90;;;5.80;;
27925;SDS011;15267;47.838;12.128;2023-06-22T11:19:42;17.45;;;6.03;;
27925;SDS011;15267;47.838;12.128;2023-06-22T11:22:08;16.20;;;5.90;;
27925;SDS011;15267;47.838;12.128;2023-06-22T11:24:34;16.85;;;5.65;;
27925;SDS011;15267;47.838;12.128;2023-06-22T11:27:00;18.27;;;5.80;;
27925;SDS011;15267;47.838;12.128;2023-06-22T11:29:26;18.83;;;5.57;;
27925;SDS011;15267;47.838;12.128;2023-06-22T11:31:52;20.80;;;6.10;;
27925;SDS011;15267;47.838;12.128;2023-06-22T11:34:18;17.30;;;5.80;;
27925;SDS011;15267;47.838;12.128;2023-06-22T11:36:44;16.90;;;5.03;;
27925;SDS011;15267;47.838;12.128;2023-06-22T11:39:10;17.00;;;5.32;;
27925;SDS011;15267;47.838;12.128;2023-06-22T11:41:38;17.35;;;5.90;;
27925;SDS011;15267;47.838;12.128;2023-06-22T11:44:04;19.77;;;5.90;;
27925;SDS011;15267;47.838;12.128;2023-06-22T11:46:31;19.40;;;5.30;;
27925;SDS011;15267;47.838;12.128;2023-06-22T11:48:57;26.15;;;6.07;;
27925;SDS011;15267;47.838;12.128;2023-06-22T11:51:23;18.10;;;5.63;;
27925;SDS011;15267;47.838;12.128;2023-06-22T11:53:49;23.75;;;5.95;;
27925;SDS011;15267;47.838;12.128;2023-06-22T11:56:15;18.83;;;5.57;;
27925;SDS011;15267;47.838;12.128;2023-06-22T11:58:41;23.77;;;6.55;;
27925;SDS011;15267;47.838;12.128;2023-06-22T12:01:07;22.23;;;6.03;;
27925;SDS011;15267;47.838;12.128;2023-06-22T12:03:33;22.42;;;5.88;;
27925;SDS011;15267;47.838;12.128;2023-06-22T12:05:59;21.30;;;6.20;;
27925;SDS011;15267;47.838;12.128;2023-06-22T12:08:25;17.17;;;6.35;;
27925;SDS011;15267;47.838;12.128;2023-06-22T12:10:51;20.45;;;5.80;;
27925;SDS011;15267;47.838;12.128;2023-06-22T12:13:18;21.77;;;6.07;;
27925;SDS011;15267;47.838;12.128;2023-06-22T12:15:44;20.63;;;5.75;;
27925;SDS011;15267;47.838;12.128;2023-06-22T12:18:10;19.75;;;5.65;;
27925;SDS011;15267;47.838;12.128;2023-06-22T12:20:39;21.48;;;5.78;;
27925;SDS011;15267;47.838;12.128;2023-06-22T12:23:05;18.30;;;5.50;;
27925;SDS011;15267;47.838;12.128;2023-06-22T12:25:31;17.40;;;5.25;;
27925;SDS011;15267;47.838;12.128;2023-06-22T12:27:57;20.30;;;5.50;;
27925;SDS011;15267;47.838;12.128;2023-06-22T12:30:23;18.23;;;5.30;;
27925;SDS011;15267;47.838;12.128;2023-06-22T12:32:49;20.85;;;5.53;;
27925;SDS011;15267;47.838;12.128;2023-06-22T12:35:16;19.60;;;5.82;;
27925;SDS011;15267;47.838;12.128;2023-06-22T12:37:42;22.58;;;5.55;;
27925;SDS011;15267;47.838;12.128;2023-06-22T12:40:08;17.75;;;5.55;;
27925;SDS011;15267;47.838;12.128;2023-06-22T12:42:34;18.90;;;5.55;;
27925;SDS011;15267;47.838;12.128;2023-06-22T12:45:00;21.98;;;5.65;;
27925;SDS011;15267;47.838;12.128;2023-06-22T12:47:26;19.73;;;5.05;;
27925;SDS011;15267;47.838;12.128;2023-06-22T12:49:52;20.92;;;5.40;;
27925;SDS011;15267;47.838;12.128;2023-06-22T12:52:18;25.55;;;5.88;;
27925;SDS011;15267;47.838;12.128;2023-06-22T12:54:44;26.85;;;5.63;;
27925;SDS011;15267;47.838;12.128;2023-06-22T12:57:10;19.92;;;5.13;;
27925;SDS011;15267;47.838;12.128;2023-06-22T12:59:36;20.63;;;5.88;;
27925;SDS011;15267;47.838;12.128;2023-06-22T13:02:02;20.02;;;5.40;;
27925;SDS011;15267;47.838;12.128;2023-06-22T13:04:28;19.90;;;5.18;;
27925;SDS011;15267;47.838;12.128;2023-06-22T13:06:54;22.55;;;5.55;;
27925;SDS011;15267;47.838;12.128;2023-06-22T13:09:20;20.05;;;5.95;;
27925;SDS011;15267;47.838;12.128;2023-06-22T13:11:46;16.95;;;5.60;;
27925;SDS011;15267;47.838;12.128;2023-06-22T13:14:12;17.88;;;5.10;;
27925;SDS011;15267;47.838;12.128;2023-06-22T13:16:38;18.83;;;6.07;;
27925;SDS011;15267;47.838;12.128;2023-06-22T13:19:04;20.42;;;5.28;;
27925;SDS011;15267;47.838;12.128;2023-06-22T13:21:30;17.65;;;5.68;;
27925;SDS011;15267;47.838;12.128;2023-06-22T13:23:56;20.02;;;6.05;;
27925;SDS011;15267;47.838;12.128;2023-06-22T13:26:22;15.88;;;5.75;;
27925;SDS011;15267;47.838;12.128;2023-06-22T13:28:48;19.98;;;5.40;;
27925;SDS011;15267;47.838;12.128;2023-06-22T13:31:14;18.45;;;5.60;;
27925;SDS011;15267;47.838;12.128;2023-06-22T13:33:40;22.55;;;5.30;;
27925;SDS011;15267;47.838;12.128;2023-06-22T13:36:06;14.95;;;5.38;;
27925;SDS011;15267;47.838;12.128;2023-06-22T13:38:35;16.40;;;5.55;;
27925;SDS011;15267;47.838;12.128;2023-06-22T13:41:03;21.33;;;5.53;;
27925;SDS011;15267;47.838;12.128;2023-06-22T13:43:29;15.48;;;5.10;;
27925;SDS011;15267;47.838;12.128;2023-06-22T13:45:55;21.38;;;4.90;;
27925;SDS011;15267;47.838;12.128;2023-06-22T13:48:21;22.23;;;5.50;;
27925;SDS011;15267;47.838;12.128;2023-06-22T13:50:48;23.95;;;5.82;;
27925;SDS011;15267;47.838;12.128;2023-06-22T13:53:14;19.33;;;5.90;;
27925;SDS011;15267;47.838;12.128;2023-06-22T13:55:40;20.52;;;5.35;;
27925;SDS011;15267;47.838;12.128;2023-06-22T13:58:06;17.98;;;5.53;;
27925;SDS011;15267;47.838;12.128;2023-06-22T14:00:32;27.40;;;5.75;;
27925;SDS011;15267;47.838;12.128;2023-06-22T14:02:58;17.70;;;5.32;;
27925;SDS011;15267;47.838;12.128;2023-06-22T14:05:24;19.90;;;5.78;;
27925;SDS011;15267;47.838;12.128;2023-06-22T14:07:50;18.33;;;5.53;;
27925;SDS011;15267;47.838;12.128;2023-06-22T14:10:16;23.05;;;5.72;;
27925;SDS011;15267;47.838;12.128;2023-06-22T14:12:42;18.73;;;5.50;;
27925;SDS011;15267;47.838;12.128;2023-06-22T14:15:08;16.02;;;5.15;;
27925;SDS011;15267;47.838;12.128;2023-06-22T14:17:34;16.77;;;5.30;;
27925;SDS011;15267;47.838;12.128;2023-06-22T14:20:00;19.40;;;5.30;;
27925;SDS011;15267;47.838;12.128;2023-06-22T14:22:26;15.45;;;5.20;;